sensor_id;sensor_type;location;lat;lon;timestamp;temperature;humidity
41720;DHT22;27405;53.316;-6.294;2023-06-04T00:01:08;14.30;77.70
41720;DHT22;27405;53.316;-6.294;2023-06-04T00:03:34;14.30;77.70
41720;DHT22;27405;53.316;-6.294;2023-06-04T00:06:00;14.30;77.80
41720;DHT22;27405;53.316;-6.294;2023-06-04T00:08:26;14.30;77.80
41720;DHT22;27405;53.316;-6.294;2023-06-04T00:10:51;14.30;77.80
41720;DHT22;27405;53.316;-6.294;2023-06-04T00:13:17;14.20;77.90
41720;DHT22;27405;53.316;-6.294;2023-06-04T00:15:43;14.20;78.00
41720;DHT22;27405;53.316;-6.294;2023-06-04T00:18:09;14.20;78.00
41720;DHT22;27405;53.316;-6.294;2023-06-04T00:20:36;14.20;78.00
41720;DHT22;27405;53.316;-6.294;2023-06-04T00:23:02;14.20;78.10
41720;DHT22;27405;53.316;-6.294;2023-06-04T00:25:28;14.10;78.00
41720;DHT22;27405;53.316;-6.294;2023-06-04T00:27:53;14.10;78.10
41720;DHT22;27405;53.316;-6.294;2023-06-04T00:30:19;14.10;78.20
41720;DHT22;27405;53.316;-6.294;2023-06-04T00:32:45;14.10;78.20
41720;DHT22;27405;53.316;-6.294;2023-06-04T00:35:12;14.10;78.20
41720;DHT22;27405;53.316;-6.294;2023-06-04T00:37:38;14.00;78.20
41720;DHT22;27405;53.316;-6.294;2023-06-04T00:40:04;14.00;78.20
41720;DHT22;27405;53.316;-6.294;2023-06-04T00:42:31;14.00;78.30
41720;DHT22;27405;53.316;-6.294;2023-06-04T00:44:57;13.90;78.20
41720;DHT22;27405;53.316;-6.294;2023-06-04T00:47:24;14.00;78.40
41720;DHT22;27405;53.316;-6.294;2023-06-04T00:49:50;13.90;78.30
41720;DHT22;27405;53.316;-6.294;2023-06-04T00:52:16;13.90;78.40
41720;DHT22;27405;53.316;-6.294;2023-06-04T00:54:42;13.90;78.50
41720;DHT22;27405;53.316;-6.294;2023-06-04T00:57:08;13.90;78.50
41720;DHT22;27405;53.316;-6.294;2023-06-04T00:59:38;13.90;78.50
41720;DHT22;27405;53.316;-6.294;2023-06-04T01:02:14;13.90;78.40
41720;DHT22;27405;53.316;-6.294;2023-06-04T01:07:39;13.90;78.60
41720;DHT22;27405;53.316;-6.294;2023-06-04T01:10:10;13.80;78.40
41720;DHT22;27405;53.316;-6.294;2023-06-04T01:12:40;13.80;78.50
41720;DHT22;27405;53.316;-6.294;2023-06-04T01:15:05;13.80;78.60
41720;DHT22;27405;53.316;-6.294;2023-06-04T01:17:43;13.70;78.30
41720;DHT22;27405;53.316;-6.294;2023-06-04T01:25:33;13.70;78.60
41720;DHT22;27405;53.316;-6.294;2023-06-04T01:27:59;13.70;78.60
41720;DHT22;27405;53.316;-6.294;2023-06-04T01:30:26;13.70;78.50
41720;DHT22;27405;53.316;-6.294;2023-06-04T01:32:57;13.70;78.40
41720;DHT22;27405;53.316;-6.294;2023-06-04T01:35:23;13.70;78.50
41720;DHT22;27405;53.316;-6.294;2023-06-04T01:37:49;13.60;78.40
41720;DHT22;27405;53.316;-6.294;2023-06-04T01:40:15;13.60;78.30
41720;DHT22;27405;53.316;-6.294;2023-06-04T01:42:42;13.60;78.20
41720;DHT22;27405;53.316;-6.294;2023-06-04T01:45:08;13.60;78.30
41720;DHT22;27405;53.316;-6.294;2023-06-04T01:47:34;13.60;78.40
41720;DHT22;27405;53.316;-6.294;2023-06-04T01:50:01;13.50;78.30
41720;DHT22;27405;53.316;-6.294;2023-06-04T01:52:27;13.50;78.40
41720;DHT22;27405;53.316;-6.294;2023-06-04T01:54:52;13.50;78.40
41720;DHT22;27405;53.316;-6.294;2023-06-04T01:57:20;13.50;78.50
41720;DHT22;27405;53.316;-6.294;2023-06-04T01:59:46;13.50;78.50
41720;DHT22;27405;53.316;-6.294;2023-06-04T02:02:12;13.50;78.50
41720;DHT22;27405;53.316;-6.294;2023-06-04T02:04:38;13.50;78.60
41720;DHT22;27405;53.316;-6.294;2023-06-04T02:07:07;13.40;78.60
41720;DHT22;27405;53.316;-6.294;2023-06-04T02:09:34;13.40;78.60
41720;DHT22;27405;53.316;-6.294;2023-06-04T02:12:00;13.40;78.70
41720;DHT22;27405;53.316;-6.294;2023-06-04T02:14:26;13.40;78.70
41720;DHT22;27405;53.316;-6.294;2023-06-04T02:16:51;13.40;78.80
41720;DHT22;27405;53.316;-6.294;2023-06-04T02:19:19;13.40;78.80
41720;DHT22;27405;53.316;-6.294;2023-06-04T02:21:46;13.30;78.70
41720;DHT22;27405;53.316;-6.294;2023-06-04T02:24:12;13.30;78.80
41720;DHT22;27405;53.316;-6.294;2023-06-04T02:26:38;13.30;78.80
41720;DHT22;27405;53.316;-6.294;2023-06-04T02:29:04;13.30;78.90
41720;DHT22;27405;53.316;-6.294;2023-06-04T02:31:30;13.20;78.90
41720;DHT22;27405;53.316;-6.294;2023-06-04T02:33:56;13.20;78.90
41720;DHT22;27405;53.316;-6.294;2023-06-04T02:36:22;13.20;78.90
41720;DHT22;27405;53.316;-6.294;2023-06-04T02:38:47;13.20;79.00
41720;DHT22;27405;53.316;-6.294;2023-06-04T02:41:13;13.20;79.00
41720;DHT22;27405;53.316;-6.294;2023-06-04T02:43:38;13.20;79.10
41720;DHT22;27405;53.316;-6.294;2023-06-04T02:46:04;13.10;79.00
41720;DHT22;27405;53.316;-6.294;2023-06-04T02:48:31;13.20;79.10
41720;DHT22;27405;53.316;-6.294;2023-06-04T02:50:57;13.10;79.10
41720;DHT22;27405;53.316;-6.294;2023-06-04T02:53:23;13.10;79.20
41720;DHT22;27405;53.316;-6.294;2023-06-04T02:55:49;13.10;79.30
41720;DHT22;27405;53.316;-6.294;2023-06-04T02:58:17;13.10;79.30
41720;DHT22;27405;53.316;-6.294;2023-06-04T03:00:43;13.10;79.40
41720;DHT22;27405;53.316;-6.294;2023-06-04T03:03:08;13.00;79.50
41720;DHT22;27405;53.316;-6.294;2023-06-04T03:05:34;13.00;79.60
41720;DHT22;27405;53.316;-6.294;2023-06-04T03:08:02;13.00;79.80
41720;DHT22;27405;53.316;-6.294;2023-06-04T03:10:29;13.00;80.00
41720;DHT22;27405;53.316;-6.294;2023-06-04T03:12:56;12.90;80.20
41720;DHT22;27405;53.316;-6.294;2023-06-04T03:15:22;12.90;80.30
41720;DHT22;27405;53.316;-6.294;2023-06-04T03:17:47;12.90;81.00
41720;DHT22;27405;53.316;-6.294;2023-06-04T03:20:14;12.90;80.40
41720;DHT22;27405;53.316;-6.294;2023-06-04T03:22:40;12.90;80.50
41720;DHT22;27405;53.316;-6.294;2023-06-04T03:25:06;12.90;80.50
41720;DHT22;27405;53.316;-6.294;2023-06-04T03:27:32;12.80;80.60
41720;DHT22;27405;53.316;-6.294;2023-06-04T03:29:58;12.80;80.70
41720;DHT22;27405;53.316;-6.294;2023-06-04T03:32:24;12.80;80.80
41720;DHT22;27405;53.316;-6.294;2023-06-04T03:34:50;12.80;80.90
41720;DHT22;27405;53.316;-6.294;2023-06-04T03:37:17;12.80;80.90
41720;DHT22;27405;53.316;-6.294;2023-06-04T03:39:42;12.70;81.00
41720;DHT22;27405;53.316;-6.294;2023-06-04T03:42:08;12.70;81.10
41720;DHT22;27405;53.316;-6.294;2023-06-04T03:44:34;12.70;81.30
41720;DHT22;27405;53.316;-6.294;2023-06-04T03:47:00;12.70;81.30
41720;DHT22;27405;53.316;-6.294;2023-06-04T03:49:25;12.70;81.40
41720;DHT22;27405;53.316;-6.294;2023-06-04T03:51:51;12.70;81.50
41720;DHT22;27405;53.316;-6.294;2023-06-04T03:54:17;12.60;81.60
41720;DHT22;27405;53.316;-6.294;2023-06-04T03:56:46;12.70;81.70
41720;DHT22;27405;53.316;-6.294;2023-06-04T03:59:12;12.60;81.80
41720;DHT22;27405;53.316;-6.294;2023-06-04T04:01:37;12.70;81.90
41720;DHT22;27405;53.316;-6.294;2023-06-04T04:04:05;12.60;81.80
41720;DHT22;27405;53.316;-6.294;2023-06-04T04:06:31;12.70;82.00
41720;DHT22;27405;53.316;-6.294;2023-06-04T04:08:57;12.60;81.90
41720;DHT22;27405;53.316;-6.294;2023-06-04T04:11:23;12.60;82.10
41720;DHT22;27405;53.316;-6.294;2023-06-04T04:13:49;12.60;82.20
41720;DHT22;27405;53.316;-6.294;2023-06-04T04:16:15;12.60;82.20
41720;DHT22;27405;53.316;-6.294;2023-06-04T04:18:43;12.60;82.30
41720;DHT22;27405;53.316;-6.294;2023-06-04T04:21:10;12.60;82.30
41720;DHT22;27405;53.316;-6.294;2023-06-04T04:23:38;12.60;82.30
41720;DHT22;27405;53.316;-6.294;2023-06-04T04:26:05;12.60;82.50
41720;DHT22;27405;53.316;-6.294;2023-06-04T04:28:32;12.60;82.40
41720;DHT22;27405;53.316;-6.294;2023-06-04T04:30:58;12.60;82.50
41720;DHT22;27405;53.316;-6.294;2023-06-04T04:33:30;12.60;82.60
41720;DHT22;27405;53.316;-6.294;2023-06-04T04:35:58;12.50;82.80
41720;DHT22;27405;53.316;-6.294;2023-06-04T04:38:25;12.50;82.90
41720;DHT22;27405;53.316;-6.294;2023-06-04T04:40:51;12.50;83.00
41720;DHT22;27405;53.316;-6.294;2023-06-04T04:43:38;12.50;83.00
41720;DHT22;27405;53.316;-6.294;2023-06-04T04:46:06;12.50;83.20
41720;DHT22;27405;53.316;-6.294;2023-06-04T04:48:32;12.60;82.90
41720;DHT22;27405;53.316;-6.294;2023-06-04T04:50:58;12.60;82.70
41720;DHT22;27405;53.316;-6.294;2023-06-04T04:53:23;12.60;83.00
41720;DHT22;27405;53.316;-6.294;2023-06-04T04:55:49;12.60;83.10
41720;DHT22;27405;53.316;-6.294;2023-06-04T04:58:15;12.60;83.20
41720;DHT22;27405;53.316;-6.294;2023-06-04T05:00:41;12.70;83.30
41720;DHT22;27405;53.316;-6.294;2023-06-04T05:03:07;12.70;83.30
41720;DHT22;27405;53.316;-6.294;2023-06-04T05:05:33;12.70;83.40
41720;DHT22;27405;53.316;-6.294;2023-06-04T05:07:59;12.70;83.40
41720;DHT22;27405;53.316;-6.294;2023-06-04T05:10:25;12.70;83.50
41720;DHT22;27405;53.316;-6.294;2023-06-04T05:12:55;12.80;83.50
41720;DHT22;27405;53.316;-6.294;2023-06-04T05:15:21;12.80;83.50
41720;DHT22;27405;53.316;-6.294;2023-06-04T05:17:47;12.80;83.50
41720;DHT22;27405;53.316;-6.294;2023-06-04T05:20:14;12.80;83.60
41720;DHT22;27405;53.316;-6.294;2023-06-04T05:22:41;12.90;84.30
41720;DHT22;27405;53.316;-6.294;2023-06-04T05:25:08;12.90;83.80
41720;DHT22;27405;53.316;-6.294;2023-06-04T05:27:35;12.90;83.80
41720;DHT22;27405;53.316;-6.294;2023-06-04T05:30:01;13.00;84.00
41720;DHT22;27405;53.316;-6.294;2023-06-04T05:32:28;13.00;84.10
41720;DHT22;27405;53.316;-6.294;2023-06-04T05:34:58;13.00;84.10
41720;DHT22;27405;53.316;-6.294;2023-06-04T05:37:25;13.10;84.10
41720;DHT22;27405;53.316;-6.294;2023-06-04T05:39:53;13.10;84.20
41720;DHT22;27405;53.316;-6.294;2023-06-04T05:42:19;13.10;84.20
41720;DHT22;27405;53.316;-6.294;2023-06-04T05:44:45;13.20;84.30
41720;DHT22;27405;53.316;-6.294;2023-06-04T05:47:11;13.20;84.40
41720;DHT22;27405;53.316;-6.294;2023-06-04T05:49:36;13.20;84.60
41720;DHT22;27405;53.316;-6.294;2023-06-04T05:52:02;13.30;84.70
41720;DHT22;27405;53.316;-6.294;2023-06-04T05:54:28;13.30;84.80
41720;DHT22;27405;53.316;-6.294;2023-06-04T05:56:54;13.40;85.00
41720;DHT22;27405;53.316;-6.294;2023-06-04T05:59:20;13.40;85.10
41720;DHT22;27405;53.316;-6.294;2023-06-04T06:01:45;13.50;85.30
41720;DHT22;27405;53.316;-6.294;2023-06-04T06:04:13;13.50;85.50
41720;DHT22;27405;53.316;-6.294;2023-06-04T06:06:38;13.60;85.70
41720;DHT22;27405;53.316;-6.294;2023-06-04T06:09:04;13.60;85.90
41720;DHT22;27405;53.316;-6.294;2023-06-04T06:11:31;13.70;86.00
41720;DHT22;27405;53.316;-6.294;2023-06-04T06:13:56;13.80;86.30
41720;DHT22;27405;53.316;-6.294;2023-06-04T06:16:22;13.80;86.40
41720;DHT22;27405;53.316;-6.294;2023-06-04T06:18:48;13.90;86.60
41720;DHT22;27405;53.316;-6.294;2023-06-04T06:21:13;14.00;86.70
41720;DHT22;27405;53.316;-6.294;2023-06-04T06:23:39;14.00;86.80
41720;DHT22;27405;53.316;-6.294;2023-06-04T06:26:05;14.10;87.00
41720;DHT22;27405;53.316;-6.294;2023-06-04T06:28:33;14.20;87.30
41720;DHT22;27405;53.316;-6.294;2023-06-04T06:31:01;14.20;87.60
41720;DHT22;27405;53.316;-6.294;2023-06-04T06:33:27;14.30;87.80
41720;DHT22;27405;53.316;-6.294;2023-06-04T06:35:53;14.40;88.00
41720;DHT22;27405;53.316;-6.294;2023-06-04T06:38:19;14.50;88.40
41720;DHT22;27405;53.316;-6.294;2023-06-04T06:40:44;14.50;88.60
41720;DHT22;27405;53.316;-6.294;2023-06-04T06:43:10;14.60;88.80
41720;DHT22;27405;53.316;-6.294;2023-06-04T06:45:36;14.70;89.00
41720;DHT22;27405;53.316;-6.294;2023-06-04T06:48:02;14.80;89.30
41720;DHT22;27405;53.316;-6.294;2023-06-04T06:50:29;14.90;89.40
41720;DHT22;27405;53.316;-6.294;2023-06-04T06:52:55;15.00;89.50
41720;DHT22;27405;53.316;-6.294;2023-06-04T06:55:21;15.10;89.60
41720;DHT22;27405;53.316;-6.294;2023-06-04T06:57:46;15.10;89.60
41720;DHT22;27405;53.316;-6.294;2023-06-04T07:00:12;15.20;89.80
41720;DHT22;27405;53.316;-6.294;2023-06-04T07:02:38;15.30;89.90
41720;DHT22;27405;53.316;-6.294;2023-06-04T07:05:04;15.30;90.00
41720;DHT22;27405;53.316;-6.294;2023-06-04T07:07:30;15.40;90.00
41720;DHT22;27405;53.316;-6.294;2023-06-04T07:09:56;15.50;90.00
41720;DHT22;27405;53.316;-6.294;2023-06-04T07:12:22;15.60;89.80
41720;DHT22;27405;53.316;-6.294;2023-06-04T07:14:47;15.60;89.80
41720;DHT22;27405;53.316;-6.294;2023-06-04T07:17:13;15.70;89.90
41720;DHT22;27405;53.316;-6.294;2023-06-04T07:19:39;15.80;89.90
41720;DHT22;27405;53.316;-6.294;2023-06-04T07:22:04;15.90;89.80
41720;DHT22;27405;53.316;-6.294;2023-06-04T07:24:30;15.90;89.70
41720;DHT22;27405;53.316;-6.294;2023-06-04T07:26:56;16.00;89.60
41720;DHT22;27405;53.316;-6.294;2023-06-04T07:29:22;16.10;89.40
41720;DHT22;27405;53.316;-6.294;2023-06-04T07:31:47;16.10;89.10
41720;DHT22;27405;53.316;-6.294;2023-06-04T07:34:13;16.20;88.50
41720;DHT22;27405;53.316;-6.294;2023-06-04T07:36:39;16.20;88.20
41720;DHT22;27405;53.316;-6.294;2023-06-04T07:39:04;16.30;88.20
41720;DHT22;27405;53.316;-6.294;2023-06-04T07:41:30;16.30;88.20
41720;DHT22;27405;53.316;-6.294;2023-06-04T07:43:56;16.40;88.00
41720;DHT22;27405;53.316;-6.294;2023-06-04T07:46:21;16.40;88.40
41720;DHT22;27405;53.316;-6.294;2023-06-04T07:48:47;16.50;87.70
41720;DHT22;27405;53.316;-6.294;2023-06-04T07:51:13;16.50;87.60
41720;DHT22;27405;53.316;-6.294;2023-06-04T07:53:39;16.60;87.50
41720;DHT22;27405;53.316;-6.294;2023-06-04T07:56:06;16.60;87.40
41720;DHT22;27405;53.316;-6.294;2023-06-04T07:58:32;16.70;87.00
41720;DHT22;27405;53.316;-6.294;2023-06-04T08:00:57;16.70;86.60
41720;DHT22;27405;53.316;-6.294;2023-06-04T08:03:23;16.80;86.20
41720;DHT22;27405;53.316;-6.294;2023-06-04T08:05:50;16.80;85.70
41720;DHT22;27405;53.316;-6.294;2023-06-04T08:08:16;16.90;85.30
41720;DHT22;27405;53.316;-6.294;2023-06-04T08:10:42;16.90;84.90
41720;DHT22;27405;53.316;-6.294;2023-06-04T08:13:07;16.90;84.50
41720;DHT22;27405;53.316;-6.294;2023-06-04T08:15:35;17.00;84.20
41720;DHT22;27405;53.316;-6.294;2023-06-04T08:18:00;17.00;84.00
41720;DHT22;27405;53.316;-6.294;2023-06-04T08:20:26;17.00;83.60
41720;DHT22;27405;53.316;-6.294;2023-06-04T08:22:52;17.10;83.40
41720;DHT22;27405;53.316;-6.294;2023-06-04T08:25:17;17.10;83.20
41720;DHT22;27405;53.316;-6.294;2023-06-04T08:27:43;17.20;82.90
41720;DHT22;27405;53.316;-6.294;2023-06-04T08:30:09;17.20;82.40
41720;DHT22;27405;53.316;-6.294;2023-06-04T08:32:35;17.30;82.10
41720;DHT22;27405;53.316;-6.294;2023-06-04T08:35:01;17.30;81.80
41720;DHT22;27405;53.316;-6.294;2023-06-04T08:37:26;17.30;81.60
41720;DHT22;27405;53.316;-6.294;2023-06-04T08:39:52;17.40;81.30
41720;DHT22;27405;53.316;-6.294;2023-06-04T08:42:34;17.40;81.30
41720;DHT22;27405;53.316;-6.294;2023-06-04T08:45:03;17.40;81.10
41720;DHT22;27405;53.316;-6.294;2023-06-04T08:47:29;17.50;80.70
41720;DHT22;27405;53.316;-6.294;2023-06-04T08:49:59;17.60;80.50
41720;DHT22;27405;53.316;-6.294;2023-06-04T08:52:26;17.50;80.40
41720;DHT22;27405;53.316;-6.294;2023-06-04T08:54:55;17.60;80.10
41720;DHT22;27405;53.316;-6.294;2023-06-04T08:57:22;17.70;79.90
41720;DHT22;27405;53.316;-6.294;2023-06-04T08:59:48;17.70;79.90
41720;DHT22;27405;53.316;-6.294;2023-06-04T09:02:15;17.80;79.60
41720;DHT22;27405;53.316;-6.294;2023-06-04T09:04:42;17.80;79.00
41720;DHT22;27405;53.316;-6.294;2023-06-04T09:07:08;17.90;78.50
41720;DHT22;27405;53.316;-6.294;2023-06-04T09:09:39;18.00;77.80
41720;DHT22;27405;53.316;-6.294;2023-06-04T09:12:11;17.90;77.00
41720;DHT22;27405;53.316;-6.294;2023-06-04T09:14:37;18.00;77.00
41720;DHT22;27405;53.316;-6.294;2023-06-04T09:17:03;18.00;76.60
41720;DHT22;27405;53.316;-6.294;2023-06-04T09:19:28;18.00;76.10
41720;DHT22;27405;53.316;-6.294;2023-06-04T09:21:55;18.10;75.80
41720;DHT22;27405;53.316;-6.294;2023-06-04T09:24:26;18.10;75.60
41720;DHT22;27405;53.316;-6.294;2023-06-04T09:27:13;18.20;74.90
41720;DHT22;27405;53.316;-6.294;2023-06-04T09:29:39;18.30;74.20
41720;DHT22;27405;53.316;-6.294;2023-06-04T09:32:05;18.30;73.60
41720;DHT22;27405;53.316;-6.294;2023-06-04T09:34:31;18.30;72.90
41720;DHT22;27405;53.316;-6.294;2023-06-04T09:36:58;18.30;72.30
41720;DHT22;27405;53.316;-6.294;2023-06-04T09:39:24;18.30;71.90
41720;DHT22;27405;53.316;-6.294;2023-06-04T09:42:02;18.30;71.80
41720;DHT22;27405;53.316;-6.294;2023-06-04T09:44:29;18.30;71.20
41720;DHT22;27405;53.316;-6.294;2023-06-04T09:46:58;18.40;71.80
41720;DHT22;27405;53.316;-6.294;2023-06-04T09:49:24;18.50;70.80
41720;DHT22;27405;53.316;-6.294;2023-06-04T09:51:50;18.50;70.30
41720;DHT22;27405;53.316;-6.294;2023-06-04T09:54:16;18.50;70.00
41720;DHT22;27405;53.316;-6.294;2023-06-04T09:56:42;18.50;69.80
41720;DHT22;27405;53.316;-6.294;2023-06-04T09:59:09;18.60;69.50
41720;DHT22;27405;53.316;-6.294;2023-06-04T10:01:39;18.60;69.10
41720;DHT22;27405;53.316;-6.294;2023-06-04T10:04:07;18.60;68.70
41720;DHT22;27405;53.316;-6.294;2023-06-04T10:06:35;18.70;68.60
41720;DHT22;27405;53.316;-6.294;2023-06-04T10:09:12;18.70;67.90
41720;DHT22;27405;53.316;-6.294;2023-06-04T10:11:49;18.80;67.20
41720;DHT22;27405;53.316;-6.294;2023-06-04T10:14:19;18.80;67.30
41720;DHT22;27405;53.316;-6.294;2023-06-04T10:16:47;18.80;67.20
41720;DHT22;27405;53.316;-6.294;2023-06-04T10:19:14;18.90;67.10
41720;DHT22;27405;53.316;-6.294;2023-06-04T10:21:40;18.90;64.80
41720;DHT22;27405;53.316;-6.294;2023-06-04T10:24:07;18.90;63.90
41720;DHT22;27405;53.316;-6.294;2023-06-04T10:26:33;18.90;63.70
41720;DHT22;27405;53.316;-6.294;2023-06-04T10:29:01;19.00;63.80
41720;DHT22;27405;53.316;-6.294;2023-06-04T10:31:26;18.90;64.10
41720;DHT22;27405;53.316;-6.294;2023-06-04T10:33:55;19.00;64.40
41720;DHT22;27405;53.316;-6.294;2023-06-04T10:36:22;18.90;64.50
41720;DHT22;27405;53.316;-6.294;2023-06-04T10:38:53;18.90;64.40
41720;DHT22;27405;53.316;-6.294;2023-06-04T10:41:20;18.90;64.00
41720;DHT22;27405;53.316;-6.294;2023-06-04T10:43:51;19.00;63.70
41720;DHT22;27405;53.316;-6.294;2023-06-04T10:46:20;19.00;63.90
41720;DHT22;27405;53.316;-6.294;2023-06-04T10:48:46;19.00;63.90
41720;DHT22;27405;53.316;-6.294;2023-06-04T10:51:13;19.00;64.50
41720;DHT22;27405;53.316;-6.294;2023-06-04T10:53:39;19.00;63.70
41720;DHT22;27405;53.316;-6.294;2023-06-04T10:56:05;19.10;63.70
41720;DHT22;27405;53.316;-6.294;2023-06-04T10:58:34;19.10;63.50
41720;DHT22;27405;53.316;-6.294;2023-06-04T11:01:00;19.20;63.20
41720;DHT22;27405;53.316;-6.294;2023-06-04T11:03:36;19.20;63.10
41720;DHT22;27405;53.316;-6.294;2023-06-04T11:06:02;19.20;62.40
41720;DHT22;27405;53.316;-6.294;2023-06-04T11:08:29;19.30;62.40
41720;DHT22;27405;53.316;-6.294;2023-06-04T11:10:55;19.30;62.30
41720;DHT22;27405;53.316;-6.294;2023-06-04T11:13:25;19.40;62.00
41720;DHT22;27405;53.316;-6.294;2023-06-04T11:15:51;19.40;61.60
41720;DHT22;27405;53.316;-6.294;2023-06-04T11:18:22;19.40;61.80
41720;DHT22;27405;53.316;-6.294;2023-06-04T11:20:49;19.40;61.20
41720;DHT22;27405;53.316;-6.294;2023-06-04T11:23:16;19.40;60.20
41720;DHT22;27405;53.316;-6.294;2023-06-04T11:25:43;19.40;60.00
41720;DHT22;27405;53.316;-6.294;2023-06-04T11:28:15;19.40;59.40
41720;DHT22;27405;53.316;-6.294;2023-06-04T11:30:42;19.30;58.30
41720;DHT22;27405;53.316;-6.294;2023-06-04T11:33:08;19.30;58.50
41720;DHT22;27405;53.316;-6.294;2023-06-04T11:35:41;19.20;58.40
41720;DHT22;27405;53.316;-6.294;2023-06-04T11:38:08;19.20;57.10
41720;DHT22;27405;53.316;-6.294;2023-06-04T11:40:34;19.20;56.10
41720;DHT22;27405;53.316;-6.294;2023-06-04T11:43:00;19.30;54.60
41720;DHT22;27405;53.316;-6.294;2023-06-04T11:45:27;19.30;52.90
41720;DHT22;27405;53.316;-6.294;2023-06-04T11:47:56;19.30;51.50
41720;DHT22;27405;53.316;-6.294;2023-06-04T11:50:23;19.30;51.00
41720;DHT22;27405;53.316;-6.294;2023-06-04T11:52:52;19.30;51.00
41720;DHT22;27405;53.316;-6.294;2023-06-04T11:55:19;19.40;52.60
41720;DHT22;27405;53.316;-6.294;2023-06-04T11:57:47;19.40;54.20
41720;DHT22;27405;53.316;-6.294;2023-06-04T12:00:14;19.50;54.90
41720;DHT22;27405;53.316;-6.294;2023-06-04T12:02:54;19.60;55.50
41720;DHT22;27405;53.316;-6.294;2023-06-04T12:05:21;19.60;56.40
41720;DHT22;27405;53.316;-6.294;2023-06-04T12:07:51;19.60;56.50
41720;DHT22;27405;53.316;-6.294;2023-06-04T12:10:18;19.60;56.70
41720;DHT22;27405;53.316;-6.294;2023-06-04T12:12:45;19.70;57.10
41720;DHT22;27405;53.316;-6.294;2023-06-04T12:15:10;19.70;57.40
41720;DHT22;27405;53.316;-6.294;2023-06-04T12:17:37;19.80;57.70
41720;DHT22;27405;53.316;-6.294;2023-06-04T12:20:03;19.80;57.90
41720;DHT22;27405;53.316;-6.294;2023-06-04T12:22:31;19.80;58.50
41720;DHT22;27405;53.316;-6.294;2023-06-04T12:24:57;19.80;58.30
41720;DHT22;27405;53.316;-6.294;2023-06-04T12:27:26;19.80;57.70
41720;DHT22;27405;53.316;-6.294;2023-06-04T12:29:57;19.80;57.80
41720;DHT22;27405;53.316;-6.294;2023-06-04T12:32:23;19.80;57.70
41720;DHT22;27405;53.316;-6.294;2023-06-04T12:34:48;19.90;57.70
41720;DHT22;27405;53.316;-6.294;2023-06-04T12:37:14;20.00;57.80
41720;DHT22;27405;53.316;-6.294;2023-06-04T12:39:39;20.00;57.90
41720;DHT22;27405;53.316;-6.294;2023-06-04T12:42:06;20.10;58.30
41720;DHT22;27405;53.316;-6.294;2023-06-04T12:44:33;20.10;58.50
41720;DHT22;27405;53.316;-6.294;2023-06-04T12:46:58;20.10;58.70
41720;DHT22;27405;53.316;-6.294;2023-06-04T12:49:24;20.10;58.90
41720;DHT22;27405;53.316;-6.294;2023-06-04T12:51:50;20.10;59.10
41720;DHT22;27405;53.316;-6.294;2023-06-04T12:54:15;20.00;59.30
41720;DHT22;27405;53.316;-6.294;2023-06-04T12:56:42;20.10;59.60
41720;DHT22;27405;53.316;-6.294;2023-06-04T12:59:08;20.20;59.80
41720;DHT22;27405;53.316;-6.294;2023-06-04T13:01:34;20.30;59.80
41720;DHT22;27405;53.316;-6.294;2023-06-04T13:04:00;20.30;59.70
41720;DHT22;27405;53.316;-6.294;2023-06-04T13:06:25;20.40;59.50
41720;DHT22;27405;53.316;-6.294;2023-06-04T13:08:51;20.40;59.20
41720;DHT22;27405;53.316;-6.294;2023-06-04T13:11:17;20.40;59.10
41720;DHT22;27405;53.316;-6.294;2023-06-04T13:13:43;20.50;59.70
41720;DHT22;27405;53.316;-6.294;2023-06-04T13:16:09;20.50;59.00
41720;DHT22;27405;53.316;-6.294;2023-06-04T13:18:35;20.40;58.80
41720;DHT22;27405;53.316;-6.294;2023-06-04T13:21:01;20.40;58.90
41720;DHT22;27405;53.316;-6.294;2023-06-04T13:23:27;20.30;59.40
41720;DHT22;27405;53.316;-6.294;2023-06-04T13:25:53;20.40;59.70
41720;DHT22;27405;53.316;-6.294;2023-06-04T13:28:19;20.40;60.00
41720;DHT22;27405;53.316;-6.294;2023-06-04T13:30:45;20.40;60.40
41720;DHT22;27405;53.316;-6.294;2023-06-04T13:33:11;20.50;60.40
41720;DHT22;27405;53.316;-6.294;2023-06-04T13:35:37;20.50;60.60
41720;DHT22;27405;53.316;-6.294;2023-06-04T13:38:04;20.50;60.50
41720;DHT22;27405;53.316;-6.294;2023-06-04T13:40:31;20.50;60.80
41720;DHT22;27405;53.316;-6.294;2023-06-04T13:42:57;20.60;60.80
41720;DHT22;27405;53.316;-6.294;2023-06-04T13:45:22;20.60;60.60
41720;DHT22;27405;53.316;-6.294;2023-06-04T13:47:48;20.60;60.40
41720;DHT22;27405;53.316;-6.294;2023-06-04T13:50:14;20.60;60.40
41720;DHT22;27405;53.316;-6.294;2023-06-04T13:52:40;20.60;60.50
41720;DHT22;27405;53.316;-6.294;2023-06-04T13:55:06;20.70;60.00
41720;DHT22;27405;53.316;-6.294;2023-06-04T13:57:32;20.70;60.00
41720;DHT22;27405;53.316;-6.294;2023-06-04T13:59:58;20.70;60.30
41720;DHT22;27405;53.316;-6.294;2023-06-04T14:02:24;20.80;60.10
41720;DHT22;27405;53.316;-6.294;2023-06-04T14:04:50;20.80;59.80
41720;DHT22;27405;53.316;-6.294;2023-06-04T14:07:16;20.90;59.90
41720;DHT22;27405;53.316;-6.294;2023-06-04T14:09:42;21.00;59.70
41720;DHT22;27405;53.316;-6.294;2023-06-04T14:12:08;21.10;59.80
41720;DHT22;27405;53.316;-6.294;2023-06-04T14:14:34;21.10;59.50
41720;DHT22;27405;53.316;-6.294;2023-06-04T14:17:04;21.10;59.60
41720;DHT22;27405;53.316;-6.294;2023-06-04T14:19:29;21.20;59.90
41720;DHT22;27405;53.316;-6.294;2023-06-04T14:21:55;21.40;59.50
41720;DHT22;27405;53.316;-6.294;2023-06-04T14:24:21;21.70;59.30
41720;DHT22;27405;53.316;-6.294;2023-06-04T14:26:47;22.10;58.60
41720;DHT22;27405;53.316;-6.294;2023-06-04T14:29:13;22.60;58.40
41720;DHT22;27405;53.316;-6.294;2023-06-04T14:31:39;23.10;57.00
41720;DHT22;27405;53.316;-6.294;2023-06-04T14:34:05;23.70;56.30
41720;DHT22;27405;53.316;-6.294;2023-06-04T14:36:32;24.20;55.90
41720;DHT22;27405;53.316;-6.294;2023-06-04T14:38:58;24.80;55.30
41720;DHT22;27405;53.316;-6.294;2023-06-04T14:41:24;25.30;54.50
41720;DHT22;27405;53.316;-6.294;2023-06-04T14:43:50;25.70;54.20
41720;DHT22;27405;53.316;-6.294;2023-06-04T14:46:16;26.10;53.80
41720;DHT22;27405;53.316;-6.294;2023-06-04T14:48:42;26.40;52.70
41720;DHT22;27405;53.316;-6.294;2023-06-04T14:51:08;26.70;51.30
41720;DHT22;27405;53.316;-6.294;2023-06-04T14:53:33;27.00;51.60
41720;DHT22;27405;53.316;-6.294;2023-06-04T14:55:59;27.30;50.00
41720;DHT22;27405;53.316;-6.294;2023-06-04T14:58:25;27.50;49.70
41720;DHT22;27405;53.316;-6.294;2023-06-04T15:00:51;27.80;49.30
41720;DHT22;27405;53.316;-6.294;2023-06-04T15:03:17;28.30;49.80
41720;DHT22;27405;53.316;-6.294;2023-06-04T15:05:43;28.60;48.30
41720;DHT22;27405;53.316;-6.294;2023-06-04T15:08:08;28.90;47.60
41720;DHT22;27405;53.316;-6.294;2023-06-04T15:10:34;29.20;46.40
41720;DHT22;27405;53.316;-6.294;2023-06-04T15:13:00;29.30;45.90
41720;DHT22;27405;53.316;-6.294;2023-06-04T15:15:26;29.50;44.80
41720;DHT22;27405;53.316;-6.294;2023-06-04T15:17:52;29.40;44.80
41720;DHT22;27405;53.316;-6.294;2023-06-04T15:20:17;29.60;44.10